Aviation Digital Data Service (ADDS)

Output produced by METARs form (0459 UTC 21 September 2017)
found at http://www.aviationweather.gov/adds/metars/
 
UGKO 210430Z 25004KT 220V280 CAVOK 18/17 Q1009 R07/09//70 NOSIG
TAF UGKO 202300Z 2100/2124 VRB02KT CAVOK TX38/2111Z TN18/2023Z 
     PROB40 
     TEMPO 2100/2103 0500 FG VV003 
     BECMG 2103/2105 08019G29KT
       
UGSB 210430Z 14009KT CAVOK 21/16 Q1011 R13/70D NOSIG
TAF UGSB 202300Z 2100/2124 13005KT 9999 SCT060 TX26/2112Z TN20/2103Z 
     TEMPO 2100/2106 14014KT
       
UGTB 210430Z VRB02KT CAVOK 20/11 Q1019 R31L/CLRD70 NOSIG
TAF UGTB 202300Z 2100/2124 VRB02KT CAVOK TX31/2112Z TN18/2102Z 
     TEMPO 2100/2103 04010KT 
     BECMG 2107/2109 16010KT 
     TEMPO 2114/2119 SCT045CB